01:59
Airports
History
Links
Donate
Help keep this website running!
PayPal
Bitcoin
This page is community maintained. The information is intended for PC simulator navigation or reference.
Always use approved charts for navigation.
LFHC
Perouges Meximieux
Perouges Meximieux (LFHC)
Pérouges, Rhône-Alpes, France (1800)
4
Lat/Lng:45° 52' 30.03" N / 5° 11' 5.8" E
45.875007 / 5.184945
Elevation:702'ft / 214mMSL
ID / ICAO:LFHC
Runways:1
Longest:17-35
Grass 692m / 2,270ft
Nearby Weather15:00 GMT 2012-09-03
Nearby weather at LFXA, Amberieu located 10.5 nautical miles from LFHC
Altimeter: 30.03
Visibility: 6.2 statute miles
Wind: 14 knots (from 340°)
Temp: 22°c / 72°f
Humidity: 60.5%

METAR: LFXA 031500Z 34014KT 320V030 9999 FEW026 BKN050 22/14 Q1017

(Powered by phpweather)
Nearby VORs <50NM
Nearby NDBs
Runway 17 / 35
Dimensions:692 x 60.1m 2270' x 197'ft
Surface:Grass
Edge Lights:Medium intensity
Runway 17 [A]Runway 35 [B]
Heading:166°TH 346°TH
Lat:
Lng:
45° 52' 40.87"N
5° 11' 1.92"E
45° 52' 19.18"N
5° 11' 9.69"E
User Notes and Comments
45° 52' 30.03" N / 5° 11' 5.8" E
Distance To
Airport ID:
Nearby Airports
(C) Amberieu 10.5 NM
LFXA ( WX ) NE 42°
(C) Lyon Saint Exupery 11.1 NM
LFLL ( WX ) SSW 204°
(C) Lyon Bron 15.5 NM
LFLY ( WX ) SW 228°
(C) Morestel 18.3 NM
LFHI SE 135°
4 Lyon Corbas 20.1 NM
LFHJ SW 220°
(U) Bourg Ceyzeriat 23.1 NM
LFHS NNE 12°
(C) La Tour du Pin 23.9 NM
LFKP SSE 156°
VFR Chart
Flight Planning at SkyVector.com